sensor_id;sensor_type;location;lat;lon;timestamp;P1;durP1;ratioP1;P2;durP2;ratioP2
16270;SDS011;8243;49.048;8.396;2023-08-01T00:00:30;6.23;;;5.60;;
16270;SDS011;8243;49.048;8.396;2023-08-01T00:02:56;7.53;;;5.47;;
16270;SDS011;8243;49.048;8.396;2023-08-01T00:05:22;8.30;;;5.93;;
16270;SDS011;8243;49.048;8.396;2023-08-01T00:07:48;7.63;;;5.43;;
16270;SDS011;8243;49.048;8.396;2023-08-01T00:10:13;7.97;;;6.07;;
16270;SDS011;8243;49.048;8.396;2023-08-01T00:12:41;8.90;;;6.00;;
16270;SDS011;8243;49.048;8.396;2023-08-01T00:15:07;8.37;;;6.13;;
16270;SDS011;8243;49.048;8.396;2023-08-01T00:17:33;7.57;;;5.60;;
16270;SDS011;8243;49.048;8.396;2023-08-01T00:19:59;6.57;;;5.80;;
16270;SDS011;8243;49.048;8.396;2023-08-01T00:22:25;8.20;;;6.03;;
16270;SDS011;8243;49.048;8.396;2023-08-01T00:24:51;7.77;;;5.77;;
16270;SDS011;8243;49.048;8.396;2023-08-01T00:27:17;10.47;;;6.10;;
16270;SDS011;8243;49.048;8.396;2023-08-01T00:29:42;8.60;;;6.20;;
16270;SDS011;8243;49.048;8.396;2023-08-01T00:32:08;11.77;;;5.37;;
16270;SDS011;8243;49.048;8.396;2023-08-01T00:34:34;11.23;;;6.00;;
16270;SDS011;8243;49.048;8.396;2023-08-01T00:36:59;7.70;;;6.07;;
16270;SDS011;8243;49.048;8.396;2023-08-01T00:39:25;8.50;;;6.60;;
16270;SDS011;8243;49.048;8.396;2023-08-01T00:41:50;10.03;;;5.93;;
16270;SDS011;8243;49.048;8.396;2023-08-01T00:44:16;10.77;;;6.43;;
16270;SDS011;8243;49.048;8.396;2023-08-01T00:46:41;7.87;;;5.70;;
16270;SDS011;8243;49.048;8.396;2023-08-01T00:49:07;8.27;;;6.40;;
16270;SDS011;8243;49.048;8.396;2023-08-01T00:51:33;9.73;;;6.63;;
16270;SDS011;8243;49.048;8.396;2023-08-01T00:53:59;6.97;;;5.93;;
16270;SDS011;8243;49.048;8.396;2023-08-01T00:56:25;9.83;;;6.43;;
16270;SDS011;8243;49.048;8.396;2023-08-01T00:58:51;7.10;;;6.33;;
16270;SDS011;8243;49.048;8.396;2023-08-01T01:01:17;7.33;;;6.20;;
16270;SDS011;8243;49.048;8.396;2023-08-01T01:03:42;7.93;;;6.10;;
16270;SDS011;8243;49.048;8.396;2023-08-01T01:06:14;9.27;;;6.67;;
16270;SDS011;8243;49.048;8.396;2023-08-01T01:08:43;9.97;;;5.93;;
16270;SDS011;8243;49.048;8.396;2023-08-01T01:11:09;8.60;;;6.53;;
16270;SDS011;8243;49.048;8.396;2023-08-01T01:13:35;9.90;;;6.23;;
16270;SDS011;8243;49.048;8.396;2023-08-01T01:16:00;7.40;;;6.00;;
16270;SDS011;8243;49.048;8.396;2023-08-01T01:18:26;6.97;;;5.87;;
16270;SDS011;8243;49.048;8.396;2023-08-01T01:20:51;7.73;;;5.83;;
16270;SDS011;8243;49.048;8.396;2023-08-01T01:23:17;9.20;;;6.47;;
16270;SDS011;8243;49.048;8.396;2023-08-01T01:25:44;8.27;;;6.10;;
16270;SDS011;8243;49.048;8.396;2023-08-01T01:28:11;6.53;;;5.93;;
16270;SDS011;8243;49.048;8.396;2023-08-01T01:30:39;6.80;;;5.73;;
16270;SDS011;8243;49.048;8.396;2023-08-01T01:33:06;6.97;;;6.03;;
16270;SDS011;8243;49.048;8.396;2023-08-01T01:35:35;7.90;;;5.63;;
16270;SDS011;8243;49.048;8.396;2023-08-01T01:38:01;8.23;;;6.47;;
16270;SDS011;8243;49.048;8.396;2023-08-01T01:40:29;7.93;;;6.23;;
16270;SDS011;8243;49.048;8.396;2023-08-01T01:42:55;7.67;;;6.33;;
16270;SDS011;8243;49.048;8.396;2023-08-01T01:45:21;7.20;;;5.50;;
16270;SDS011;8243;49.048;8.396;2023-08-01T01:47:47;7.70;;;5.67;;
16270;SDS011;8243;49.048;8.396;2023-08-01T01:50:12;6.83;;;5.47;;
16270;SDS011;8243;49.048;8.396;2023-08-01T01:52:38;7.83;;;6.27;;
16270;SDS011;8243;49.048;8.396;2023-08-01T01:55:03;8.50;;;5.70;;
16270;SDS011;8243;49.048;8.396;2023-08-01T01:57:29;8.67;;;5.90;;
16270;SDS011;8243;49.048;8.396;2023-08-01T01:59:55;6.63;;;5.87;;
16270;SDS011;8243;49.048;8.396;2023-08-01T02:02:20;7.47;;;6.40;;
16270;SDS011;8243;49.048;8.396;2023-08-01T02:04:46;9.53;;;6.87;;
16270;SDS011;8243;49.048;8.396;2023-08-01T02:07:13;8.47;;;6.23;;
16270;SDS011;8243;49.048;8.396;2023-08-01T02:09:39;8.90;;;5.90;;
16270;SDS011;8243;49.048;8.396;2023-08-01T02:12:05;7.17;;;6.03;;
16270;SDS011;8243;49.048;8.396;2023-08-01T02:14:33;8.57;;;6.90;;
16270;SDS011;8243;49.048;8.396;2023-08-01T02:16:58;8.90;;;6.97;;
16270;SDS011;8243;49.048;8.396;2023-08-01T02:19:24;8.90;;;6.20;;
16270;SDS011;8243;49.048;8.396;2023-08-01T02:21:49;8.90;;;5.83;;
16270;SDS011;8243;49.048;8.396;2023-08-01T02:24:15;11.33;;;6.80;;
16270;SDS011;8243;49.048;8.396;2023-08-01T02:26:40;6.97;;;6.27;;
16270;SDS011;8243;49.048;8.396;2023-08-01T02:29:06;7.43;;;5.83;;
16270;SDS011;8243;49.048;8.396;2023-08-01T02:31:31;7.87;;;6.60;;
16270;SDS011;8243;49.048;8.396;2023-08-01T02:33:57;9.43;;;6.00;;
16270;SDS011;8243;49.048;8.396;2023-08-01T02:36:23;7.10;;;5.80;;
16270;SDS011;8243;49.048;8.396;2023-08-01T02:38:48;8.80;;;5.93;;
16270;SDS011;8243;49.048;8.396;2023-08-01T02:41:14;8.87;;;5.70;;
16270;SDS011;8243;49.048;8.396;2023-08-01T02:43:39;9.03;;;6.77;;
16270;SDS011;8243;49.048;8.396;2023-08-01T02:46:06;8.03;;;5.90;;
16270;SDS011;8243;49.048;8.396;2023-08-01T02:48:32;6.73;;;5.93;;
16270;SDS011;8243;49.048;8.396;2023-08-01T02:50:57;7.40;;;5.80;;
16270;SDS011;8243;49.048;8.396;2023-08-01T02:53:23;10.70;;;6.13;;
16270;SDS011;8243;49.048;8.396;2023-08-01T02:55:48;6.40;;;5.80;;
16270;SDS011;8243;49.048;8.396;2023-08-01T02:58:14;6.60;;;5.70;;
16270;SDS011;8243;49.048;8.396;2023-08-01T03:00:40;8.30;;;6.50;;
16270;SDS011;8243;49.048;8.396;2023-08-01T03:03:05;9.43;;;5.90;;
16270;SDS011;8243;49.048;8.396;2023-08-01T03:05:31;9.20;;;5.53;;
16270;SDS011;8243;49.048;8.396;2023-08-01T03:07:57;8.00;;;6.37;;
16270;SDS011;8243;49.048;8.396;2023-08-01T03:10:23;7.03;;;6.33;;
16270;SDS011;8243;49.048;8.396;2023-08-01T03:12:48;7.73;;;5.93;;
16270;SDS011;8243;49.048;8.396;2023-08-01T03:15:14;9.47;;;6.10;;
16270;SDS011;8243;49.048;8.396;2023-08-01T03:17:39;8.80;;;6.60;;
16270;SDS011;8243;49.048;8.396;2023-08-01T03:20:05;8.23;;;6.33;;
16270;SDS011;8243;49.048;8.396;2023-08-01T03:22:35;7.07;;;6.37;;
16270;SDS011;8243;49.048;8.396;2023-08-01T03:25:05;7.10;;;6.40;;
16270;SDS011;8243;49.048;8.396;2023-08-01T03:27:34;7.97;;;5.90;;
16270;SDS011;8243;49.048;8.396;2023-08-01T03:30:00;8.33;;;6.13;;
16270;SDS011;8243;49.048;8.396;2023-08-01T03:32:26;7.03;;;5.83;;
16270;SDS011;8243;49.048;8.396;2023-08-01T03:34:51;7.37;;;5.87;;
16270;SDS011;8243;49.048;8.396;2023-08-01T03:37:17;7.13;;;6.30;;
16270;SDS011;8243;49.048;8.396;2023-08-01T03:39:43;8.40;;;5.83;;
16270;SDS011;8243;49.048;8.396;2023-08-01T03:42:08;8.90;;;5.90;;
16270;SDS011;8243;49.048;8.396;2023-08-01T03:44:34;11.27;;;6.67;;
16270;SDS011;8243;49.048;8.396;2023-08-01T03:47:00;6.93;;;5.93;;
16270;SDS011;8243;49.048;8.396;2023-08-01T03:49:25;6.73;;;5.97;;
16270;SDS011;8243;49.048;8.396;2023-08-01T03:51:51;7.27;;;5.77;;
16270;SDS011;8243;49.048;8.396;2023-08-01T03:54:16;11.30;;;6.30;;
16270;SDS011;8243;49.048;8.396;2023-08-01T03:56:42;9.47;;;6.70;;
16270;SDS011;8243;49.048;8.396;2023-08-01T03:59:10;9.47;;;6.53;;
16270;SDS011;8243;49.048;8.396;2023-08-01T04:01:37;7.50;;;6.03;;
16270;SDS011;8243;49.048;8.396;2023-08-01T04:04:02;8.20;;;5.93;;
16270;SDS011;8243;49.048;8.396;2023-08-01T04:06:28;9.77;;;6.90;;
16270;SDS011;8243;49.048;8.396;2023-08-01T04:08:53;11.43;;;6.43;;
16270;SDS011;8243;49.048;8.396;2023-08-01T04:11:21;9.27;;;6.33;;
16270;SDS011;8243;49.048;8.396;2023-08-01T04:13:47;6.33;;;5.73;;
16270;SDS011;8243;49.048;8.396;2023-08-01T04:16:13;9.23;;;6.60;;
16270;SDS011;8243;49.048;8.396;2023-08-01T04:18:38;10.20;;;5.70;;
16270;SDS011;8243;49.048;8.396;2023-08-01T04:21:04;6.50;;;5.73;;
16270;SDS011;8243;49.048;8.396;2023-08-01T04:23:29;8.77;;;5.77;;
16270;SDS011;8243;49.048;8.396;2023-08-01T04:25:55;9.23;;;6.20;;
16270;SDS011;8243;49.048;8.396;2023-08-01T04:28:20;7.30;;;6.07;;
16270;SDS011;8243;49.048;8.396;2023-08-01T04:30:49;8.83;;;6.40;;
16270;SDS011;8243;49.048;8.396;2023-08-01T04:33:15;9.53;;;5.93;;
16270;SDS011;8243;49.048;8.396;2023-08-01T04:35:41;9.67;;;7.57;;
16270;SDS011;8243;49.048;8.396;2023-08-01T04:38:06;7.43;;;6.23;;
16270;SDS011;8243;49.048;8.396;2023-08-01T04:40:33;8.30;;;6.47;;
16270;SDS011;8243;49.048;8.396;2023-08-01T04:43:00;9.63;;;5.90;;
16270;SDS011;8243;49.048;8.396;2023-08-01T04:45:26;9.73;;;6.57;;
16270;SDS011;8243;49.048;8.396;2023-08-01T04:47:52;6.80;;;6.07;;
16270;SDS011;8243;49.048;8.396;2023-08-01T04:50:18;7.07;;;6.10;;
16270;SDS011;8243;49.048;8.396;2023-08-01T04:52:43;8.20;;;5.43;;
16270;SDS011;8243;49.048;8.396;2023-08-01T04:55:09;7.40;;;5.90;;
16270;SDS011;8243;49.048;8.396;2023-08-01T04:57:34;7.90;;;5.57;;
16270;SDS011;8243;49.048;8.396;2023-08-01T05:00:00;9.10;;;6.20;;
16270;SDS011;8243;49.048;8.396;2023-08-01T05:02:25;8.60;;;6.23;;
16270;SDS011;8243;49.048;8.396;2023-08-01T05:04:51;8.03;;;5.87;;
16270;SDS011;8243;49.048;8.396;2023-08-01T05:07:17;7.67;;;5.63;;
16270;SDS011;8243;49.048;8.396;2023-08-01T05:09:42;8.60;;;5.93;;
16270;SDS011;8243;49.048;8.396;2023-08-01T05:12:08;7.93;;;5.70;;
16270;SDS011;8243;49.048;8.396;2023-08-01T05:14:34;7.93;;;5.90;;
16270;SDS011;8243;49.048;8.396;2023-08-01T05:17:00;7.33;;;6.20;;
16270;SDS011;8243;49.048;8.396;2023-08-01T05:19:25;10.60;;;6.47;;
16270;SDS011;8243;49.048;8.396;2023-08-01T05:21:51;8.73;;;6.60;;
16270;SDS011;8243;49.048;8.396;2023-08-01T05:24:16;7.60;;;6.13;;
16270;SDS011;8243;49.048;8.396;2023-08-01T05:26:42;7.87;;;6.10;;
16270;SDS011;8243;49.048;8.396;2023-08-01T05:29:07;9.13;;;5.83;;
16270;SDS011;8243;49.048;8.396;2023-08-01T05:31:33;8.67;;;6.57;;
16270;SDS011;8243;49.048;8.396;2023-08-01T05:33:58;7.80;;;6.43;;
16270;SDS011;8243;49.048;8.396;2023-08-01T05:36:24;8.00;;;7.03;;
16270;SDS011;8243;49.048;8.396;2023-08-01T05:38:49;11.20;;;6.97;;
16270;SDS011;8243;49.048;8.396;2023-08-01T05:41:15;10.77;;;9.03;;
16270;SDS011;8243;49.048;8.396;2023-08-01T05:43:40;10.17;;;6.70;;
16270;SDS011;8243;49.048;8.396;2023-08-01T05:46:06;10.17;;;6.43;;
16270;SDS011;8243;49.048;8.396;2023-08-01T05:48:32;9.63;;;6.03;;
16270;SDS011;8243;49.048;8.396;2023-08-01T05:50:57;9.27;;;6.97;;
16270;SDS011;8243;49.048;8.396;2023-08-01T05:53:23;7.47;;;5.63;;
16270;SDS011;8243;49.048;8.396;2023-08-01T05:55:49;8.20;;;6.53;;
16270;SDS011;8243;49.048;8.396;2023-08-01T05:58:15;11.53;;;6.97;;
16270;SDS011;8243;49.048;8.396;2023-08-01T06:00:41;8.23;;;6.13;;
16270;SDS011;8243;49.048;8.396;2023-08-01T06:03:06;8.00;;;6.40;;
16270;SDS011;8243;49.048;8.396;2023-08-01T06:05:32;9.70;;;6.40;;
16270;SDS011;8243;49.048;8.396;2023-08-01T06:07:58;7.67;;;6.80;;
16270;SDS011;8243;49.048;8.396;2023-08-01T06:10:24;8.17;;;6.50;;
16270;SDS011;8243;49.048;8.396;2023-08-01T06:12:49;7.57;;;6.80;;
16270;SDS011;8243;49.048;8.396;2023-08-01T06:15:15;11.60;;;6.93;;
16270;SDS011;8243;49.048;8.396;2023-08-01T06:17:40;12.80;;;7.40;;
16270;SDS011;8243;49.048;8.396;2023-08-01T06:20:06;9.03;;;7.60;;
16270;SDS011;8243;49.048;8.396;2023-08-01T06:22:33;9.37;;;6.83;;
16270;SDS011;8243;49.048;8.396;2023-08-01T06:24:59;10.67;;;7.60;;
16270;SDS011;8243;49.048;8.396;2023-08-01T06:27:24;9.93;;;7.07;;
16270;SDS011;8243;49.048;8.396;2023-08-01T06:29:50;9.70;;;7.27;;
16270;SDS011;8243;49.048;8.396;2023-08-01T06:32:16;12.10;;;8.13;;
16270;SDS011;8243;49.048;8.396;2023-08-01T06:34:41;10.10;;;7.97;;
16270;SDS011;8243;49.048;8.396;2023-08-01T06:37:07;9.43;;;8.00;;
16270;SDS011;8243;49.048;8.396;2023-08-01T06:39:32;11.13;;;8.60;;
16270;SDS011;8243;49.048;8.396;2023-08-01T06:41:58;12.03;;;8.40;;
16270;SDS011;8243;49.048;8.396;2023-08-01T06:44:23;11.03;;;7.90;;
16270;SDS011;8243;49.048;8.396;2023-08-01T06:46:49;13.67;;;8.70;;
16270;SDS011;8243;49.048;8.396;2023-08-01T06:49:14;9.70;;;8.30;;
16270;SDS011;8243;49.048;8.396;2023-08-01T06:51:40;9.93;;;8.20;;
16270;SDS011;8243;49.048;8.396;2023-08-01T06:54:07;10.93;;;8.43;;
16270;SDS011;8243;49.048;8.396;2023-08-01T06:56:33;9.93;;;8.20;;
16270;SDS011;8243;49.048;8.396;2023-08-01T06:58:58;9.27;;;8.30;;
16270;SDS011;8243;49.048;8.396;2023-08-01T07:01:24;11.03;;;8.40;;
16270;SDS011;8243;49.048;8.396;2023-08-01T07:03:49;13.27;;;9.20;;
16270;SDS011;8243;49.048;8.396;2023-08-01T09:06:21;4.27;;;3.97;;
16270;SDS011;8243;49.048;8.396;2023-08-01T09:08:50;3.50;;;3.30;;
16270;SDS011;8243;49.048;8.396;2023-08-01T09:11:19;2.33;;;2.10;;
16270;SDS011;8243;49.048;8.396;2023-08-01T09:13:44;4.23;;;2.50;;
16270;SDS011;8243;49.048;8.396;2023-08-01T09:16:10;2.33;;;2.13;;
16270;SDS011;8243;49.048;8.396;2023-08-01T09:18:47;2.13;;;1.80;;
16270;SDS011;8243;49.048;8.396;2023-08-01T09:21:19;2.13;;;1.93;;
16270;SDS011;8243;49.048;8.396;2023-08-01T09:23:46;3.20;;;1.80;;
16270;SDS011;8243;49.048;8.396;2023-08-01T09:26:15;1.50;;;1.40;;
16270;SDS011;8243;49.048;8.396;2023-08-01T09:28:41;1.50;;;1.40;;
16270;SDS011;8243;49.048;8.396;2023-08-01T09:31:06;1.53;;;1.20;;
16270;SDS011;8243;49.048;8.396;2023-08-01T09:33:39;3.03;;;1.40;;
16270;SDS011;8243;49.048;8.396;2023-08-01T09:36:06;1.50;;;1.40;;
16270;SDS011;8243;49.048;8.396;2023-08-01T09:38:36;2.57;;;1.00;;
16270;SDS011;8243;49.048;8.396;2023-08-01T09:41:03;1.20;;;1.10;;
16270;SDS011;8243;49.048;8.396;2023-08-01T09:43:36;1.27;;;1.17;;
16270;SDS011;8243;49.048;8.396;2023-08-01T09:46:02;1.00;;;0.90;;
16270;SDS011;8243;49.048;8.396;2023-08-01T09:48:31;2.13;;;1.20;;
16270;SDS011;8243;49.048;8.396;2023-08-01T09:53:36;1.10;;;1.10;;
16270;SDS011;8243;49.048;8.396;2023-08-01T09:56:17;1.03;;;0.90;;
16270;SDS011;8243;49.048;8.396;2023-08-01T09:58:53;0.90;;;0.90;;
16270;SDS011;8243;49.048;8.396;2023-08-01T10:01:20;2.13;;;1.00;;
16270;SDS011;8243;49.048;8.396;2023-08-01T10:03:48;1.07;;;1.07;;
16270;SDS011;8243;49.048;8.396;2023-08-01T10:06:19;2.20;;;1.10;;
16270;SDS011;8243;49.048;8.396;2023-08-01T10:08:46;1.10;;;1.00;;
16270;SDS011;8243;49.048;8.396;2023-08-01T10:11:22;1.77;;;1.10;;
16270;SDS011;8243;49.048;8.396;2023-08-01T10:13:48;1.10;;;1.00;;
16270;SDS011;8243;49.048;8.396;2023-08-01T10:16:14;1.40;;;1.30;;
16270;SDS011;8243;49.048;8.396;2023-08-01T10:18:41;1.30;;;1.20;;
16270;SDS011;8243;49.048;8.396;2023-08-01T10:21:09;1.13;;;1.10;;
16270;SDS011;8243;49.048;8.396;2023-08-01T10:23:38;1.10;;;1.10;;
16270;SDS011;8243;49.048;8.396;2023-08-01T10:26:05;2.13;;;0.90;;
16270;SDS011;8243;49.048;8.396;2023-08-01T10:28:34;1.93;;;1.07;;
16270;SDS011;8243;49.048;8.396;2023-08-01T10:31:10;1.90;;;1.10;;
16270;SDS011;8243;49.048;8.396;2023-08-01T10:33:37;1.17;;;1.03;;
16270;SDS011;8243;49.048;8.396;2023-08-01T10:36:13;0.90;;;0.90;;
16270;SDS011;8243;49.048;8.396;2023-08-01T10:42:08;1.20;;;1.10;;
16270;SDS011;8243;49.048;8.396;2023-08-01T10:44:45;1.93;;;1.10;;
16270;SDS011;8243;49.048;8.396;2023-08-01T10:47:11;0.93;;;0.93;;
16270;SDS011;8243;49.048;8.396;2023-08-01T10:49:37;2.47;;;1.13;;
16270;SDS011;8243;49.048;8.396;2023-08-01T10:54:57;1.30;;;1.20;;
16270;SDS011;8243;49.048;8.396;2023-08-01T10:57:24;1.80;;;1.40;;
16270;SDS011;8243;49.048;8.396;2023-08-01T10:59:51;1.50;;;1.20;;
16270;SDS011;8243;49.048;8.396;2023-08-01T11:02:20;1.53;;;1.27;;
16270;SDS011;8243;49.048;8.396;2023-08-01T11:04:57;1.73;;;1.40;;
16270;SDS011;8243;49.048;8.396;2023-08-01T11:07:27;2.27;;;1.30;;
16270;SDS011;8243;49.048;8.396;2023-08-01T11:12:38;1.63;;;1.40;;
16270;SDS011;8243;49.048;8.396;2023-08-01T11:15:05;1.63;;;1.40;;
16270;SDS011;8243;49.048;8.396;2023-08-01T11:17:33;2.63;;;1.33;;
16270;SDS011;8243;49.048;8.396;2023-08-01T11:20:03;1.80;;;1.50;;
16270;SDS011;8243;49.048;8.396;2023-08-01T11:22:33;2.33;;;1.43;;
16270;SDS011;8243;49.048;8.396;2023-08-01T11:24:59;4.93;;;1.50;;
16270;SDS011;8243;49.048;8.396;2023-08-01T11:27:25;2.10;;;1.57;;
16270;SDS011;8243;49.048;8.396;2023-08-01T11:29:51;1.70;;;1.43;;
16270;SDS011;8243;49.048;8.396;2023-08-01T11:32:18;2.03;;;1.60;;
16270;SDS011;8243;49.048;8.396;2023-08-01T11:34:48;2.77;;;1.70;;
16270;SDS011;8243;49.048;8.396;2023-08-01T11:37:14;2.03;;;1.70;;
16270;SDS011;8243;49.048;8.396;2023-08-01T11:39:48;1.67;;;1.40;;
16270;SDS011;8243;49.048;8.396;2023-08-01T11:42:16;1.50;;;1.40;;
16270;SDS011;8243;49.048;8.396;2023-08-01T11:44:43;2.27;;;1.50;;
16270;SDS011;8243;49.048;8.396;2023-08-01T11:47:13;2.17;;;1.50;;
16270;SDS011;8243;49.048;8.396;2023-08-01T11:49:39;1.50;;;1.40;;
16270;SDS011;8243;49.048;8.396;2023-08-01T11:52:24;2.30;;;1.50;;
16270;SDS011;8243;49.048;8.396;2023-08-01T11:54:53;1.40;;;1.30;;
16270;SDS011;8243;49.048;8.396;2023-08-01T11:57:22;2.27;;;1.50;;
16270;SDS011;8243;49.048;8.396;2023-08-01T11:59:49;3.33;;;1.70;;
16270;SDS011;8243;49.048;8.396;2023-08-01T12:02:26;1.70;;;1.50;;
16270;SDS011;8243;49.048;8.396;2023-08-01T12:04:54;1.57;;;1.47;;
16270;SDS011;8243;49.048;8.396;2023-08-01T12:07:20;1.70;;;1.60;;
16270;SDS011;8243;49.048;8.396;2023-08-01T12:09:55;2.17;;;1.60;;
16270;SDS011;8243;49.048;8.396;2023-08-01T12:12:22;1.67;;;1.43;;
16270;SDS011;8243;49.048;8.396;2023-08-01T12:14:48;1.97;;;1.50;;
16270;SDS011;8243;49.048;8.396;2023-08-01T12:17:13;1.97;;;1.50;;
16270;SDS011;8243;49.048;8.396;2023-08-01T12:19:39;1.63;;;1.50;;
16270;SDS011;8243;49.048;8.396;2023-08-01T12:22:04;2.73;;;1.50;;
16270;SDS011;8243;49.048;8.396;2023-08-01T12:24:30;1.47;;;1.27;;
16270;SDS011;8243;49.048;8.396;2023-08-01T12:26:56;2.40;;;1.70;;
16270;SDS011;8243;49.048;8.396;2023-08-01T12:29:22;1.60;;;1.50;;
16270;SDS011;8243;49.048;8.396;2023-08-01T12:31:48;2.43;;;1.67;;
16270;SDS011;8243;49.048;8.396;2023-08-01T12:34:15;1.87;;;1.40;;
16270;SDS011;8243;49.048;8.396;2023-08-01T12:36:40;1.60;;;1.50;;
16270;SDS011;8243;49.048;8.396;2023-08-01T12:39:06;1.53;;;1.43;;
16270;SDS011;8243;49.048;8.396;2023-08-01T12:41:35;2.50;;;1.63;;
16270;SDS011;8243;49.048;8.396;2023-08-01T12:44:02;1.87;;;1.73;;
16270;SDS011;8243;49.048;8.396;2023-08-01T12:46:28;3.07;;;1.70;;
16270;SDS011;8243;49.048;8.396;2023-08-01T12:48:56;1.50;;;1.17;;
16270;SDS011;8243;49.048;8.396;2023-08-01T12:51:22;2.87;;;1.70;;
16270;SDS011;8243;49.048;8.396;2023-08-01T12:53:47;2.93;;;1.60;;
16270;SDS011;8243;49.048;8.396;2023-08-01T12:56:13;1.60;;;1.50;;
16270;SDS011;8243;49.048;8.396;2023-08-01T12:58:39;1.70;;;1.40;;
16270;SDS011;8243;49.048;8.396;2023-08-01T13:01:05;2.77;;;1.30;;
16270;SDS011;8243;49.048;8.396;2023-08-01T13:03:31;2.50;;;1.53;;
16270;SDS011;8243;49.048;8.396;2023-08-01T13:05:57;1.77;;;1.30;;
16270;SDS011;8243;49.048;8.396;2023-08-01T13:08:23;3.07;;;1.57;;
16270;SDS011;8243;49.048;8.396;2023-08-01T13:10:48;3.63;;;1.60;;
16270;SDS011;8243;49.048;8.396;2023-08-01T13:13:15;2.40;;;1.70;;
16270;SDS011;8243;49.048;8.396;2023-08-01T13:15:41;1.93;;;1.67;;
16270;SDS011;8243;49.048;8.396;2023-08-01T13:18:07;2.63;;;1.70;;
16270;SDS011;8243;49.048;8.396;2023-08-01T13:20:32;4.43;;;1.80;;
16270;SDS011;8243;49.048;8.396;2023-08-01T13:22:58;1.40;;;1.30;;
16270;SDS011;8243;49.048;8.396;2023-08-01T13:25:24;1.60;;;1.47;;
16270;SDS011;8243;49.048;8.396;2023-08-01T13:27:52;2.20;;;1.60;;
16270;SDS011;8243;49.048;8.396;2023-08-01T13:30:18;1.97;;;1.50;;
16270;SDS011;8243;49.048;8.396;2023-08-01T13:32:44;2.93;;;1.70;;
16270;SDS011;8243;49.048;8.396;2023-08-01T13:35:10;1.67;;;1.57;;
16270;SDS011;8243;49.048;8.396;2023-08-01T13:37:35;1.67;;;1.40;;
16270;SDS011;8243;49.048;8.396;2023-08-01T13:40:02;2.13;;;1.47;;
16270;SDS011;8243;49.048;8.396;2023-08-01T13:42:28;2.03;;;1.53;;
16270;SDS011;8243;49.048;8.396;2023-08-01T13:44:53;2.00;;;1.70;;
16270;SDS011;8243;49.048;8.396;2023-08-01T13:47:19;1.53;;;1.30;;
16270;SDS011;8243;49.048;8.396;2023-08-01T13:49:45;2.73;;;1.70;;
16270;SDS011;8243;49.048;8.396;2023-08-01T13:52:10;3.63;;;1.60;;
16270;SDS011;8243;49.048;8.396;2023-08-01T13:54:36;1.53;;;1.30;;
16270;SDS011;8243;49.048;8.396;2023-08-01T13:57:01;2.43;;;1.60;;
16270;SDS011;8243;49.048;8.396;2023-08-01T13:59:27;3.63;;;1.60;;
16270;SDS011;8243;49.048;8.396;2023-08-01T14:01:53;4.63;;;1.70;;
16270;SDS011;8243;49.048;8.396;2023-08-01T14:04:18;2.47;;;1.63;;
16270;SDS011;8243;49.048;8.396;2023-08-01T14:06:45;2.47;;;1.53;;
16270;SDS011;8243;49.048;8.396;2023-08-01T14:09:11;2.43;;;1.53;;
16270;SDS011;8243;49.048;8.396;2023-08-01T14:11:36;1.70;;;1.50;;
16270;SDS011;8243;49.048;8.396;2023-08-01T14:14:02;2.20;;;1.80;;
16270;SDS011;8243;49.048;8.396;2023-08-01T14:16:29;3.40;;;1.63;;
16270;SDS011;8243;49.048;8.396;2023-08-01T14:18:54;1.60;;;1.40;;
16270;SDS011;8243;49.048;8.396;2023-08-01T14:21:20;3.13;;;1.30;;
16270;SDS011;8243;49.048;8.396;2023-08-01T14:23:46;2.17;;;1.47;;
16270;SDS011;8243;49.048;8.396;2023-08-01T14:26:13;1.90;;;1.47;;
16270;SDS011;8243;49.048;8.396;2023-08-01T14:28:39;1.83;;;1.67;;
16270;SDS011;8243;49.048;8.396;2023-08-01T14:31:04;1.60;;;1.50;;
16270;SDS011;8243;49.048;8.396;2023-08-01T14:33:30;2.33;;;1.50;;
16270;SDS011;8243;49.048;8.396;2023-08-01T14:35:56;3.60;;;1.60;;
16270;SDS011;8243;49.048;8.396;2023-08-01T14:38:22;2.13;;;1.63;;
16270;SDS011;8243;49.048;8.396;2023-08-01T14:40:48;1.70;;;1.60;;
16270;SDS011;8243;49.048;8.396;2023-08-01T14:43:13;2.00;;;1.50;;
16270;SDS011;8243;49.048;8.396;2023-08-01T14:45:39;2.13;;;1.40;;
16270;SDS011;8243;49.048;8.396;2023-08-01T14:48:08;4.30;;;1.40;;
16270;SDS011;8243;49.048;8.396;2023-08-01T14:50:34;2.73;;;1.70;;
16270;SDS011;8243;49.048;8.396;2023-08-01T14:53:00;2.80;;;1.70;;
16270;SDS011;8243;49.048;8.396;2023-08-01T14:55:31;4.57;;;1.80;;
16270;SDS011;8243;49.048;8.396;2023-08-01T14:57:57;3.20;;;1.50;;
16270;SDS011;8243;49.048;8.396;2023-08-01T15:00:23;2.23;;;1.53;;
16270;SDS011;8243;49.048;8.396;2023-08-01T15:02:48;2.70;;;1.70;;
16270;SDS011;8243;49.048;8.396;2023-08-01T15:05:14;4.77;;;1.90;;
16270;SDS011;8243;49.048;8.396;2023-08-01T15:07:39;1.60;;;1.50;;
16270;SDS011;8243;49.048;8.396;2023-08-01T15:10:05;2.63;;;1.70;;
16270;SDS011;8243;49.048;8.396;2023-08-01T15:12:31;2.40;;;1.70;;
16270;SDS011;8243;49.048;8.396;2023-08-01T15:14:57;1.50;;;1.40;;
16270;SDS011;8243;49.048;8.396;2023-08-01T15:17:22;2.17;;;1.30;;
16270;SDS011;8243;49.048;8.396;2023-08-01T15:19:49;2.40;;;1.70;;
16270;SDS011;8243;49.048;8.396;2023-08-01T15:22:15;2.83;;;1.90;;
16270;SDS011;8243;49.048;8.396;2023-08-01T15:24:41;1.50;;;1.40;;
16270;SDS011;8243;49.048;8.396;2023-08-01T15:27:07;3.10;;;1.70;;
16270;SDS011;8243;49.048;8.396;2023-08-01T15:29:33;2.07;;;1.70;;
16270;SDS011;8243;49.048;8.396;2023-08-01T15:31:58;3.00;;;1.60;;
16270;SDS011;8243;49.048;8.396;2023-08-01T15:34:24;2.73;;;1.67;;
16270;SDS011;8243;49.048;8.396;2023-08-01T15:36:49;2.37;;;1.50;;
16270;SDS011;8243;49.048;8.396;2023-08-01T15:39:15;1.60;;;1.50;;
16270;SDS011;8243;49.048;8.396;2023-08-01T15:41:41;1.93;;;1.50;;
16270;SDS011;8243;49.048;8.396;2023-08-01T15:44:07;4.30;;;1.80;;
16270;SDS011;8243;49.048;8.396;2023-08-01T15:46:33;1.80;;;1.60;;
16270;SDS011;8243;49.048;8.396;2023-08-01T15:48:58;1.87;;;1.47;;
16270;SDS011;8243;49.048;8.396;2023-08-01T15:51:24;3.23;;;1.80;;
16270;SDS011;8243;49.048;8.396;2023-08-01T15:53:50;1.87;;;1.43;;
16270;SDS011;8243;49.048;8.396;2023-08-01T15:56:15;2.93;;;1.80;;
16270;SDS011;8243;49.048;8.396;2023-08-01T15:58:41;1.60;;;1.50;;
16270;SDS011;8243;49.048;8.396;2023-08-01T16:01:07;2.27;;;1.80;;
16270;SDS011;8243;49.048;8.396;2023-08-01T16:03:33;5.53;;;2.00;;
16270;SDS011;8243;49.048;8.396;2023-08-01T16:06:03;2.70;;;1.97;;
16270;SDS011;8243;49.048;8.396;2023-08-01T16:08:29;3.43;;;2.20;;
16270;SDS011;8243;49.048;8.396;2023-08-01T16:10:55;1.77;;;1.67;;
16270;SDS011;8243;49.048;8.396;2023-08-01T16:13:21;2.50;;;2.03;;
16270;SDS011;8243;49.048;8.396;2023-08-01T16:15:46;2.97;;;1.93;;
16270;SDS011;8243;49.048;8.396;2023-08-01T16:18:13;2.20;;;1.80;;
16270;SDS011;8243;49.048;8.396;2023-08-01T16:20:39;2.30;;;2.10;;
16270;SDS011;8243;49.048;8.396;2023-08-01T16:23:04;3.60;;;2.13;;
16270;SDS011;8243;49.048;8.396;2023-08-01T16:25:30;2.93;;;1.93;;
16270;SDS011;8243;49.048;8.396;2023-08-01T16:27:55;2.53;;;1.80;;
16270;SDS011;8243;49.048;8.396;2023-08-01T16:30:21;4.23;;;2.27;;
16270;SDS011;8243;49.048;8.396;2023-08-01T16:32:47;1.97;;;1.77;;
16270;SDS011;8243;49.048;8.396;2023-08-01T16:35:13;3.03;;;1.83;;
16270;SDS011;8243;49.048;8.396;2023-08-01T16:37:39;3.40;;;1.70;;
16270;SDS011;8243;49.048;8.396;2023-08-01T16:40:09;2.63;;;1.70;;
16270;SDS011;8243;49.048;8.396;2023-08-01T16:42:34;2.63;;;1.97;;
16270;SDS011;8243;49.048;8.396;2023-08-01T16:45:00;2.37;;;2.10;;
16270;SDS011;8243;49.048;8.396;2023-08-01T16:47:26;2.53;;;2.30;;
16270;SDS011;8243;49.048;8.396;2023-08-01T16:49:55;2.03;;;1.80;;
16270;SDS011;8243;49.048;8.396;2023-08-01T16:52:21;2.10;;;1.80;;
16270;SDS011;8243;49.048;8.396;2023-08-01T16:54:47;2.27;;;1.77;;
16270;SDS011;8243;49.048;8.396;2023-08-01T16:57:13;2.73;;;2.10;;
16270;SDS011;8243;49.048;8.396;2023-08-01T16:59:38;2.60;;;1.53;;
16270;SDS011;8243;49.048;8.396;2023-08-01T17:02:05;3.30;;;1.63;;
16270;SDS011;8243;49.048;8.396;2023-08-01T17:04:31;3.03;;;1.73;;
16270;SDS011;8243;49.048;8.396;2023-08-01T17:06:57;3.73;;;1.70;;